sensor_id;sensor_type;location;lat;lon;timestamp;temperature;humidity
8892;DHT22;4482;54.332;10.118;2023-12-28T00:00:53;6.80;99.90
8892;DHT22;4482;54.332;10.118;2023-12-28T00:03:19;6.80;99.90
8892;DHT22;4482;54.332;10.118;2023-12-28T00:05:46;6.70;99.90
8892;DHT22;4482;54.332;10.118;2023-12-28T00:08:13;6.80;99.90
8892;DHT22;4482;54.332;10.118;2023-12-28T00:10:41;6.70;99.90
8892;DHT22;4482;54.332;10.118;2023-12-28T00:13:08;6.80;99.90
8892;DHT22;4482;54.332;10.118;2023-12-28T00:15:34;6.80;99.90
8892;DHT22;4482;54.332;10.118;2023-12-28T00:18:01;6.90;99.90
8892;DHT22;4482;54.332;10.118;2023-12-28T00:20:28;6.90;99.90
8892;DHT22;4482;54.332;10.118;2023-12-28T00:22:55;6.90;99.90
8892;DHT22;4482;54.332;10.118;2023-12-28T00:25:23;6.90;99.90
8892;DHT22;4482;54.332;10.118;2023-12-28T00:27:51;6.90;99.90
8892;DHT22;4482;54.332;10.118;2023-12-28T00:30:18;6.90;99.90
8892;DHT22;4482;54.332;10.118;2023-12-28T00:32:45;6.90;99.90
8892;DHT22;4482;54.332;10.118;2023-12-28T00:35:12;6.90;99.90
8892;DHT22;4482;54.332;10.118;2023-12-28T00:37:38;7.00;99.90
8892;DHT22;4482;54.332;10.118;2023-12-28T00:40:05;7.00;99.90
8892;DHT22;4482;54.332;10.118;2023-12-28T00:42:32;7.00;99.90
8892;DHT22;4482;54.332;10.118;2023-12-28T00:45:00;7.00;99.90
8892;DHT22;4482;54.332;10.118;2023-12-28T00:47:27;7.10;99.90
8892;DHT22;4482;54.332;10.118;2023-12-28T00:49:57;7.10;99.90
8892;DHT22;4482;54.332;10.118;2023-12-28T00:52:24;7.00;99.90
8892;DHT22;4482;54.332;10.118;2023-12-28T00:54:51;7.00;99.90
8892;DHT22;4482;54.332;10.118;2023-12-28T00:57:17;7.10;99.90
8892;DHT22;4482;54.332;10.118;2023-12-28T00:59:44;7.10;99.90
8892;DHT22;4482;54.332;10.118;2023-12-28T01:02:12;7.10;99.90
8892;DHT22;4482;54.332;10.118;2023-12-28T01:04:39;7.10;99.90
8892;DHT22;4482;54.332;10.118;2023-12-28T01:07:06;7.20;99.90
8892;DHT22;4482;54.332;10.118;2023-12-28T01:09:33;7.20;99.90
8892;DHT22;4482;54.332;10.118;2023-12-28T01:11:59;7.30;99.90
8892;DHT22;4482;54.332;10.118;2023-12-28T01:14:26;7.30;99.90
8892;DHT22;4482;54.332;10.118;2023-12-28T01:16:53;7.40;99.90
8892;DHT22;4482;54.332;10.118;2023-12-28T01:19:21;7.40;99.90
8892;DHT22;4482;54.332;10.118;2023-12-28T01:21:48;7.50;99.90
8892;DHT22;4482;54.332;10.118;2023-12-28T01:24:15;7.50;99.90
8892;DHT22;4482;54.332;10.118;2023-12-28T01:26:42;7.60;99.90
8892;DHT22;4482;54.332;10.118;2023-12-28T01:29:08;7.60;99.90
8892;DHT22;4482;54.332;10.118;2023-12-28T01:31:35;7.50;99.90
8892;DHT22;4482;54.332;10.118;2023-12-28T01:34:04;7.60;99.90
8892;DHT22;4482;54.332;10.118;2023-12-28T01:36:32;7.60;99.90
8892;DHT22;4482;54.332;10.118;2023-12-28T01:38:59;7.60;99.90
8892;DHT22;4482;54.332;10.118;2023-12-28T01:41:25;7.60;99.90
8892;DHT22;4482;54.332;10.118;2023-12-28T01:43:52;7.70;99.90
8892;DHT22;4482;54.332;10.118;2023-12-28T01:46:19;7.60;99.90
8892;DHT22;4482;54.332;10.118;2023-12-28T01:48:47;7.60;99.90
8892;DHT22;4482;54.332;10.118;2023-12-28T01:51:15;7.70;99.90
8892;DHT22;4482;54.332;10.118;2023-12-28T01:53:44;7.60;99.90
8892;DHT22;4482;54.332;10.118;2023-12-28T01:56:11;7.60;99.90
8892;DHT22;4482;54.332;10.118;2023-12-28T01:58:38;7.70;99.90
8892;DHT22;4482;54.332;10.118;2023-12-28T02:01:06;7.70;99.90
8892;DHT22;4482;54.332;10.118;2023-12-28T02:03:33;7.70;99.90
8892;DHT22;4482;54.332;10.118;2023-12-28T02:06:00;7.70;99.90
8892;DHT22;4482;54.332;10.118;2023-12-28T02:08:27;7.70;99.90
8892;DHT22;4482;54.332;10.118;2023-12-28T02:10:55;7.70;99.90
8892;DHT22;4482;54.332;10.118;2023-12-28T02:13:22;7.80;99.90
8892;DHT22;4482;54.332;10.118;2023-12-28T02:15:49;7.80;99.90
8892;DHT22;4482;54.332;10.118;2023-12-28T02:18:18;7.80;99.90
8892;DHT22;4482;54.332;10.118;2023-12-28T02:20:46;7.80;99.90
8892;DHT22;4482;54.332;10.118;2023-12-28T02:23:13;7.90;99.90
8892;DHT22;4482;54.332;10.118;2023-12-28T02:25:41;7.80;99.90
8892;DHT22;4482;54.332;10.118;2023-12-28T02:28:08;7.90;99.90
8892;DHT22;4482;54.332;10.118;2023-12-28T02:30:35;7.90;99.90
8892;DHT22;4482;54.332;10.118;2023-12-28T02:33:04;7.80;99.90
8892;DHT22;4482;54.332;10.118;2023-12-28T02:35:33;7.90;99.90
8892;DHT22;4482;54.332;10.118;2023-12-28T02:38:02;7.90;99.90
8892;DHT22;4482;54.332;10.118;2023-12-28T02:40:32;7.90;99.90
8892;DHT22;4482;54.332;10.118;2023-12-28T02:43:01;7.90;99.90
8892;DHT22;4482;54.332;10.118;2023-12-28T02:45:28;7.90;99.90
8892;DHT22;4482;54.332;10.118;2023-12-28T02:47:55;7.90;99.90
8892;DHT22;4482;54.332;10.118;2023-12-28T02:50:22;8.00;99.90
8892;DHT22;4482;54.332;10.118;2023-12-28T02:52:48;8.00;99.90
8892;DHT22;4482;54.332;10.118;2023-12-28T02:55:15;8.00;99.90
8892;DHT22;4482;54.332;10.118;2023-12-28T02:57:42;8.00;99.90
8892;DHT22;4482;54.332;10.118;2023-12-28T03:00:11;8.00;99.90
8892;DHT22;4482;54.332;10.118;2023-12-28T03:02:38;8.00;99.90
8892;DHT22;4482;54.332;10.118;2023-12-28T03:05:05;8.00;99.90
8892;DHT22;4482;54.332;10.118;2023-12-28T03:07:32;8.00;99.90
8892;DHT22;4482;54.332;10.118;2023-12-28T03:09:58;8.10;99.90
8892;DHT22;4482;54.332;10.118;2023-12-28T03:12:25;8.10;99.90
8892;DHT22;4482;54.332;10.118;2023-12-28T03:14:52;8.10;99.90
8892;DHT22;4482;54.332;10.118;2023-12-28T03:17:20;8.20;99.90
8892;DHT22;4482;54.332;10.118;2023-12-28T03:19:47;8.10;99.90
8892;DHT22;4482;54.332;10.118;2023-12-28T03:22:13;8.20;99.90
8892;DHT22;4482;54.332;10.118;2023-12-28T03:24:40;8.10;99.90
8892;DHT22;4482;54.332;10.118;2023-12-28T03:27:07;8.10;99.90
8892;DHT22;4482;54.332;10.118;2023-12-28T03:29:34;8.10;99.90
8892;DHT22;4482;54.332;10.118;2023-12-28T03:32:00;8.10;99.90
8892;DHT22;4482;54.332;10.118;2023-12-28T03:34:29;8.10;99.90
8892;DHT22;4482;54.332;10.118;2023-12-28T03:36:56;8.10;99.90
8892;DHT22;4482;54.332;10.118;2023-12-28T03:39:23;8.10;99.90
8892;DHT22;4482;54.332;10.118;2023-12-28T03:41:50;8.10;99.90
8892;DHT22;4482;54.332;10.118;2023-12-28T03:44:18;8.20;99.90
8892;DHT22;4482;54.332;10.118;2023-12-28T03:46:47;8.20;99.90
8892;DHT22;4482;54.332;10.118;2023-12-28T03:49:14;8.10;99.90
8892;DHT22;4482;54.332;10.118;2023-12-28T03:51:43;8.20;99.90
8892;DHT22;4482;54.332;10.118;2023-12-28T03:54:09;8.20;99.90
8892;DHT22;4482;54.332;10.118;2023-12-28T03:56:36;8.20;99.90
8892;DHT22;4482;54.332;10.118;2023-12-28T03:59:05;8.20;99.90
8892;DHT22;4482;54.332;10.118;2023-12-28T04:01:31;8.20;99.90
8892;DHT22;4482;54.332;10.118;2023-12-28T04:03:58;8.30;99.90
8892;DHT22;4482;54.332;10.118;2023-12-28T04:06:25;8.30;99.90
8892;DHT22;4482;54.332;10.118;2023-12-28T04:08:53;8.30;99.90
8892;DHT22;4482;54.332;10.118;2023-12-28T04:11:20;8.30;99.90
8892;DHT22;4482;54.332;10.118;2023-12-28T04:13:46;8.30;99.90
8892;DHT22;4482;54.332;10.118;2023-12-28T04:16:13;8.20;99.90
8892;DHT22;4482;54.332;10.118;2023-12-28T04:18:40;8.20;99.90
8892;DHT22;4482;54.332;10.118;2023-12-28T04:21:07;8.20;99.90
8892;DHT22;4482;54.332;10.118;2023-12-28T04:23:34;8.20;99.90
8892;DHT22;4482;54.332;10.118;2023-12-28T04:26:02;8.10;99.90
8892;DHT22;4482;54.332;10.118;2023-12-28T04:28:29;8.10;99.90
8892;DHT22;4482;54.332;10.118;2023-12-28T04:30:56;8.10;99.90
8892;DHT22;4482;54.332;10.118;2023-12-28T04:33:23;8.00;99.90
8892;DHT22;4482;54.332;10.118;2023-12-28T04:35:49;8.00;99.90
8892;DHT22;4482;54.332;10.118;2023-12-28T04:38:16;7.90;99.90
8892;DHT22;4482;54.332;10.118;2023-12-28T04:40:43;7.90;99.90
8892;DHT22;4482;54.332;10.118;2023-12-28T04:43:11;7.90;99.90
8892;DHT22;4482;54.332;10.118;2023-12-28T04:45:37;7.90;99.90
8892;DHT22;4482;54.332;10.118;2023-12-28T04:48:04;7.90;99.90
8892;DHT22;4482;54.332;10.118;2023-12-28T04:50:31;7.90;99.90
8892;DHT22;4482;54.332;10.118;2023-12-28T04:52:58;7.90;99.90
8892;DHT22;4482;54.332;10.118;2023-12-28T04:55:24;7.90;99.90
8892;DHT22;4482;54.332;10.118;2023-12-28T04:57:51;7.80;99.90
8892;DHT22;4482;54.332;10.118;2023-12-28T05:00:19;7.80;99.90
8892;DHT22;4482;54.332;10.118;2023-12-28T05:02:46;7.80;99.90
8892;DHT22;4482;54.332;10.118;2023-12-28T05:05:13;7.80;99.90
8892;DHT22;4482;54.332;10.118;2023-12-28T05:07:39;7.80;99.90
8892;DHT22;4482;54.332;10.118;2023-12-28T05:10:06;7.90;99.90
8892;DHT22;4482;54.332;10.118;2023-12-28T05:12:34;7.90;99.90
8892;DHT22;4482;54.332;10.118;2023-12-28T05:15:00;7.90;99.90
8892;DHT22;4482;54.332;10.118;2023-12-28T05:17:28;7.90;99.90
8892;DHT22;4482;54.332;10.118;2023-12-28T05:19:55;7.90;99.90
8892;DHT22;4482;54.332;10.118;2023-12-28T05:22:22;7.80;99.90
8892;DHT22;4482;54.332;10.118;2023-12-28T05:24:49;7.80;99.90
8892;DHT22;4482;54.332;10.118;2023-12-28T05:27:15;7.70;99.90
8892;DHT22;4482;54.332;10.118;2023-12-28T05:29:42;7.80;99.90
8892;DHT22;4482;54.332;10.118;2023-12-28T05:32:10;7.80;99.90
8892;DHT22;4482;54.332;10.118;2023-12-28T05:34:38;7.80;99.90
8892;DHT22;4482;54.332;10.118;2023-12-28T05:37:04;7.80;99.90
8892;DHT22;4482;54.332;10.118;2023-12-28T05:39:31;7.80;99.90
8892;DHT22;4482;54.332;10.118;2023-12-28T05:41:58;7.80;99.90
8892;DHT22;4482;54.332;10.118;2023-12-28T05:44:24;7.80;99.90
8892;DHT22;4482;54.332;10.118;2023-12-28T05:46:51;7.80;99.90
8892;DHT22;4482;54.332;10.118;2023-12-28T05:49:18;7.90;99.90
8892;DHT22;4482;54.332;10.118;2023-12-28T05:51:46;7.90;99.90
8892;DHT22;4482;54.332;10.118;2023-12-28T05:54:13;8.00;99.90
8892;DHT22;4482;54.332;10.118;2023-12-28T05:56:39;8.00;99.90
8892;DHT22;4482;54.332;10.118;2023-12-28T05:59:06;8.00;99.90
8892;DHT22;4482;54.332;10.118;2023-12-28T06:01:40;8.00;99.90
8892;DHT22;4482;54.332;10.118;2023-12-28T06:04:07;8.10;99.90
8892;DHT22;4482;54.332;10.118;2023-12-28T06:06:34;8.10;99.90
8892;DHT22;4482;54.332;10.118;2023-12-28T06:09:03;8.20;99.90
8892;DHT22;4482;54.332;10.118;2023-12-28T06:11:30;8.20;99.90
8892;DHT22;4482;54.332;10.118;2023-12-28T06:13:56;8.20;99.90
8892;DHT22;4482;54.332;10.118;2023-12-28T06:16:23;8.20;99.90
8892;DHT22;4482;54.332;10.118;2023-12-28T06:18:50;8.30;99.90
8892;DHT22;4482;54.332;10.118;2023-12-28T06:21:17;8.30;99.90
8892;DHT22;4482;54.332;10.118;2023-12-28T06:23:44;8.30;99.90
8892;DHT22;4482;54.332;10.118;2023-12-28T06:26:12;8.20;99.90
8892;DHT22;4482;54.332;10.118;2023-12-28T06:28:39;8.30;99.90
8892;DHT22;4482;54.332;10.118;2023-12-28T06:31:06;8.30;99.90
8892;DHT22;4482;54.332;10.118;2023-12-28T06:33:32;8.30;99.90
8892;DHT22;4482;54.332;10.118;2023-12-28T06:36:04;8.30;99.90
8892;DHT22;4482;54.332;10.118;2023-12-28T06:38:31;8.30;99.90
8892;DHT22;4482;54.332;10.118;2023-12-28T06:40:58;8.30;99.90
8892;DHT22;4482;54.332;10.118;2023-12-28T06:43:26;8.40;99.90
8892;DHT22;4482;54.332;10.118;2023-12-28T06:45:53;8.40;99.90
8892;DHT22;4482;54.332;10.118;2023-12-28T06:48:20;8.40;99.90
8892;DHT22;4482;54.332;10.118;2023-12-28T06:50:46;8.50;99.90
8892;DHT22;4482;54.332;10.118;2023-12-28T06:53:13;8.50;99.90
8892;DHT22;4482;54.332;10.118;2023-12-28T06:55:40;8.60;99.90
8892;DHT22;4482;54.332;10.118;2023-12-28T06:58:06;8.60;99.90
8892;DHT22;4482;54.332;10.118;2023-12-28T07:00:34;8.60;99.90
8892;DHT22;4482;54.332;10.118;2023-12-28T07:03:01;8.60;99.90
8892;DHT22;4482;54.332;10.118;2023-12-28T07:05:28;8.60;99.90
8892;DHT22;4482;54.332;10.118;2023-12-28T07:07:55;8.70;99.90
8892;DHT22;4482;54.332;10.118;2023-12-28T07:10:21;8.70;99.90
8892;DHT22;4482;54.332;10.118;2023-12-28T07:12:48;8.70;99.90
8892;DHT22;4482;54.332;10.118;2023-12-28T07:15:14;8.80;99.90
8892;DHT22;4482;54.332;10.118;2023-12-28T07:17:42;8.80;99.90
8892;DHT22;4482;54.332;10.118;2023-12-28T07:20:09;8.80;99.90
8892;DHT22;4482;54.332;10.118;2023-12-28T07:22:36;8.90;99.90
8892;DHT22;4482;54.332;10.118;2023-12-28T07:25:04;8.90;99.90
8892;DHT22;4482;54.332;10.118;2023-12-28T07:27:31;8.90;99.90
8892;DHT22;4482;54.332;10.118;2023-12-28T07:29:58;9.00;99.90
8892;DHT22;4482;54.332;10.118;2023-12-28T07:32:24;8.90;99.90
8892;DHT22;4482;54.332;10.118;2023-12-28T07:34:53;9.00;99.90
8892;DHT22;4482;54.332;10.118;2023-12-28T07:37:19;9.00;99.90
8892;DHT22;4482;54.332;10.118;2023-12-28T07:39:46;9.10;99.90
8892;DHT22;4482;54.332;10.118;2023-12-28T07:42:13;9.10;99.90
8892;DHT22;4482;54.332;10.118;2023-12-28T07:44:40;9.10;99.90
8892;DHT22;4482;54.332;10.118;2023-12-28T07:47:07;9.10;99.90
8892;DHT22;4482;54.332;10.118;2023-12-28T07:49:34;9.30;99.90
8892;DHT22;4482;54.332;10.118;2023-12-28T07:52:02;9.30;99.90
8892;DHT22;4482;54.332;10.118;2023-12-28T07:54:29;9.30;99.90
8892;DHT22;4482;54.332;10.118;2023-12-28T07:56:55;9.30;99.90
8892;DHT22;4482;54.332;10.118;2023-12-28T07:59:22;9.30;99.90
8892;DHT22;4482;54.332;10.118;2023-12-28T08:01:49;9.30;99.90
8892;DHT22;4482;54.332;10.118;2023-12-28T08:04:15;9.40;99.90
8892;DHT22;4482;54.332;10.118;2023-12-28T08:06:42;9.40;99.90
8892;DHT22;4482;54.332;10.118;2023-12-28T08:09:10;9.40;99.90
8892;DHT22;4482;54.332;10.118;2023-12-28T08:11:37;9.40;99.90
8892;DHT22;4482;54.332;10.118;2023-12-28T08:14:04;9.40;99.90
8892;DHT22;4482;54.332;10.118;2023-12-28T08:16:31;9.40;99.90
8892;DHT22;4482;54.332;10.118;2023-12-28T08:18:58;9.40;99.90
8892;DHT22;4482;54.332;10.118;2023-12-28T08:21:24;9.40;99.90
8892;DHT22;4482;54.332;10.118;2023-12-28T08:23:51;9.40;99.90
8892;DHT22;4482;54.332;10.118;2023-12-28T08:26:19;9.40;99.90
8892;DHT22;4482;54.332;10.118;2023-12-28T08:28:46;9.50;99.90
8892;DHT22;4482;54.332;10.118;2023-12-28T08:31:12;9.40;99.90
8892;DHT22;4482;54.332;10.118;2023-12-28T08:33:40;9.30;99.90
8892;DHT22;4482;54.332;10.118;2023-12-28T08:36:07;9.30;99.90
8892;DHT22;4482;54.332;10.118;2023-12-28T08:38:34;9.20;99.90
8892;DHT22;4482;54.332;10.118;2023-12-28T08:41:01;9.20;99.90
8892;DHT22;4482;54.332;10.118;2023-12-28T08:43:35;9.20;99.90
8892;DHT22;4482;54.332;10.118;2023-12-28T08:46:01;9.20;99.90
8892;DHT22;4482;54.332;10.118;2023-12-28T08:48:28;9.20;99.90
8892;DHT22;4482;54.332;10.118;2023-12-28T08:50:55;9.20;99.90
8892;DHT22;4482;54.332;10.118;2023-12-28T08:53:22;9.30;99.90
8892;DHT22;4482;54.332;10.118;2023-12-28T08:55:48;9.40;99.90
8892;DHT22;4482;54.332;10.118;2023-12-28T08:58:15;9.40;99.90
8892;DHT22;4482;54.332;10.118;2023-12-28T09:00:43;9.50;99.90
8892;DHT22;4482;54.332;10.118;2023-12-28T09:03:11;9.50;99.90
8892;DHT22;4482;54.332;10.118;2023-12-28T09:05:37;9.50;99.90
8892;DHT22;4482;54.332;10.118;2023-12-28T09:08:04;9.50;99.90
8892;DHT22;4482;54.332;10.118;2023-12-28T09:10:31;9.50;99.90
8892;DHT22;4482;54.332;10.118;2023-12-28T09:12:58;9.60;99.90
8892;DHT22;4482;54.332;10.118;2023-12-28T09:15:25;9.60;99.90
8892;DHT22;4482;54.332;10.118;2023-12-28T09:17:53;9.70;99.90
8892;DHT22;4482;54.332;10.118;2023-12-28T09:20:19;9.70;99.90
8892;DHT22;4482;54.332;10.118;2023-12-28T09:22:46;9.80;99.90
8892;DHT22;4482;54.332;10.118;2023-12-28T09:25:18;9.90;99.90
8892;DHT22;4482;54.332;10.118;2023-12-28T09:27:45;9.90;99.90
8892;DHT22;4482;54.332;10.118;2023-12-28T09:30:12;9.90;99.90
8892;DHT22;4482;54.332;10.118;2023-12-28T09:32:39;10.10;99.90
8892;DHT22;4482;54.332;10.118;2023-12-28T09:35:07;10.20;99.90
8892;DHT22;4482;54.332;10.118;2023-12-28T09:37:34;10.20;99.90
8892;DHT22;4482;54.332;10.118;2023-12-28T09:40:01;10.30;99.90
8892;DHT22;4482;54.332;10.118;2023-12-28T09:42:29;10.40;99.90
8892;DHT22;4482;54.332;10.118;2023-12-28T09:44:58;10.40;99.90
8892;DHT22;4482;54.332;10.118;2023-12-28T09:47:25;10.40;99.90
8892;DHT22;4482;54.332;10.118;2023-12-28T09:49:52;10.40;99.90
8892;DHT22;4482;54.332;10.118;2023-12-28T09:52:20;10.40;99.90
8892;DHT22;4482;54.332;10.118;2023-12-28T09:54:47;10.40;99.90
8892;DHT22;4482;54.332;10.118;2023-12-28T09:57:13;10.40;99.90
8892;DHT22;4482;54.332;10.118;2023-12-28T09:59:40;10.50;99.90
8892;DHT22;4482;54.332;10.118;2023-12-28T10:02:07;10.50;99.90
8892;DHT22;4482;54.332;10.118;2023-12-28T10:04:34;10.40;99.90
8892;DHT22;4482;54.332;10.118;2023-12-28T10:07:01;10.30;99.90
8892;DHT22;4482;54.332;10.118;2023-12-28T10:09:29;10.20;99.90
8892;DHT22;4482;54.332;10.118;2023-12-28T10:11:56;10.20;99.90
8892;DHT22;4482;54.332;10.118;2023-12-28T10:14:23;10.10;99.90
8892;DHT22;4482;54.332;10.118;2023-12-28T10:16:50;10.20;99.90
8892;DHT22;4482;54.332;10.118;2023-12-28T10:19:21;10.20;99.90
8892;DHT22;4482;54.332;10.118;2023-12-28T10:21:47;10.30;99.90
8892;DHT22;4482;54.332;10.118;2023-12-28T10:24:14;10.30;99.90
8892;DHT22;4482;54.332;10.118;2023-12-28T10:26:42;10.40;99.90
8892;DHT22;4482;54.332;10.118;2023-12-28T10:29:09;10.50;99.90
8892;DHT22;4482;54.332;10.118;2023-12-28T10:31:37;10.60;99.90
8892;DHT22;4482;54.332;10.118;2023-12-28T10:34:07;10.70;99.90
8892;DHT22;4482;54.332;10.118;2023-12-28T10:36:33;10.70;99.90
8892;DHT22;4482;54.332;10.118;2023-12-28T10:39:01;10.80;99.90
8892;DHT22;4482;54.332;10.118;2023-12-28T10:41:30;10.90;99.90
8892;DHT22;4482;54.332;10.118;2023-12-28T10:44:00;10.90;99.90
8892;DHT22;4482;54.332;10.118;2023-12-28T10:46:30;10.90;99.90
8892;DHT22;4482;54.332;10.118;2023-12-28T10:48:57;11.00;99.90
8892;DHT22;4482;54.332;10.118;2023-12-28T10:51:25;11.00;99.90
8892;DHT22;4482;54.332;10.118;2023-12-28T10:53:54;10.90;99.90
8892;DHT22;4482;54.332;10.118;2023-12-28T10:56:24;10.90;99.90
8892;DHT22;4482;54.332;10.118;2023-12-28T10:58:54;10.90;99.90
8892;DHT22;4482;54.332;10.118;2023-12-28T11:01:24;10.90;99.90
8892;DHT22;4482;54.332;10.118;2023-12-28T11:04:08;10.90;99.90
8892;DHT22;4482;54.332;10.118;2023-12-28T11:06:36;11.00;99.90
8892;DHT22;4482;54.332;10.118;2023-12-28T11:09:04;11.00;99.90
8892;DHT22;4482;54.332;10.118;2023-12-28T11:11:32;10.90;99.90
8892;DHT22;4482;54.332;10.118;2023-12-28T11:13:59;10.70;99.90
8892;DHT22;4482;54.332;10.118;2023-12-28T11:16:28;10.50;99.90
8892;DHT22;4482;54.332;10.118;2023-12-28T11:18:55;10.30;99.90
8892;DHT22;4482;54.332;10.118;2023-12-28T11:21:23;10.30;99.90
8892;DHT22;4482;54.332;10.118;2023-12-28T11:23:50;10.20;99.90
8892;DHT22;4482;54.332;10.118;2023-12-28T11:26:17;10.20;99.90
8892;DHT22;4482;54.332;10.118;2023-12-28T11:28:43;10.10;99.90
8892;DHT22;4482;54.332;10.118;2023-12-28T11:31:10;10.00;99.90
8892;DHT22;4482;54.332;10.118;2023-12-28T11:33:44;9.90;99.90
8892;DHT22;4482;54.332;10.118;2023-12-28T11:36:11;9.90;99.90
8892;DHT22;4482;54.332;10.118;2023-12-28T11:38:38;9.80;99.90
8892;DHT22;4482;54.332;10.118;2023-12-28T11:41:07;9.70;99.90
8892;DHT22;4482;54.332;10.118;2023-12-28T11:43:34;9.70;99.90
8892;DHT22;4482;54.332;10.118;2023-12-28T11:46:02;9.70;99.90
8892;DHT22;4482;54.332;10.118;2023-12-28T11:48:31;9.70;99.90
8892;DHT22;4482;54.332;10.118;2023-12-28T11:50:59;9.70;99.90
8892;DHT22;4482;54.332;10.118;2023-12-28T11:53:27;9.60;99.90
8892;DHT22;4482;54.332;10.118;2023-12-28T11:55:59;9.60;99.90
8892;DHT22;4482;54.332;10.118;2023-12-28T11:58:26;9.60;99.90
8892;DHT22;4482;54.332;10.118;2023-12-28T12:00:53;9.60;99.90
8892;DHT22;4482;54.332;10.118;2023-12-28T12:03:19;9.50;99.90
8892;DHT22;4482;54.332;10.118;2023-12-28T12:05:46;9.50;99.90
8892;DHT22;4482;54.332;10.118;2023-12-28T12:08:14;9.50;99.90
8892;DHT22;4482;54.332;10.118;2023-12-28T12:10:41;9.50;99.90
8892;DHT22;4482;54.332;10.118;2023-12-28T12:13:08;9.60;99.90
8892;DHT22;4482;54.332;10.118;2023-12-28T12:15:35;9.60;99.90
8892;DHT22;4482;54.332;10.118;2023-12-28T12:18:02;9.70;99.90
8892;DHT22;4482;54.332;10.118;2023-12-28T12:20:29;9.60;99.90
8892;DHT22;4482;54.332;10.118;2023-12-28T12:22:57;9.70;99.90
8892;DHT22;4482;54.332;10.118;2023-12-28T12:25:25;9.70;99.90
8892;DHT22;4482;54.332;10.118;2023-12-28T12:27:52;9.70;99.90
8892;DHT22;4482;54.332;10.118;2023-12-28T12:30:19;9.80;99.90
8892;DHT22;4482;54.332;10.118;2023-12-28T12:32:46;9.80;99.90
8892;DHT22;4482;54.332;10.118;2023-12-28T12:35:12;9.80;99.90
8892;DHT22;4482;54.332;10.118;2023-12-28T12:37:40;9.80;99.90
8892;DHT22;4482;54.332;10.118;2023-12-28T12:40:07;9.80;99.90
8892;DHT22;4482;54.332;10.118;2023-12-28T12:42:35;9.80;99.90
8892;DHT22;4482;54.332;10.118;2023-12-28T12:45:03;9.80;99.90
8892;DHT22;4482;54.332;10.118;2023-12-28T12:47:31;9.90;99.90
8892;DHT22;4482;54.332;10.118;2023-12-28T12:49:58;9.80;99.90
8892;DHT22;4482;54.332;10.118;2023-12-28T12:52:25;9.80;99.90
8892;DHT22;4482;54.332;10.118;2023-12-28T12:54:53;10.00;99.90
8892;DHT22;4482;54.332;10.118;2023-12-28T12:57:20;9.90;99.90
8892;DHT22;4482;54.332;10.118;2023-12-28T12:59:48;9.90;99.90
8892;DHT22;4482;54.332;10.118;2023-12-28T13:02:16;9.90;99.90
8892;DHT22;4482;54.332;10.118;2023-12-28T13:04:43;10.00;99.90
8892;DHT22;4482;54.332;10.118;2023-12-28T13:07:10;10.00;99.90
8892;DHT22;4482;54.332;10.118;2023-12-28T13:09:37;9.90;99.90
8892;DHT22;4482;54.332;10.118;2023-12-28T13:12:04;9.90;99.90
8892;DHT22;4482;54.332;10.118;2023-12-28T13:14:30;9.80;99.90
8892;DHT22;4482;54.332;10.118;2023-12-28T13:16:58;9.80;99.90
8892;DHT22;4482;54.332;10.118;2023-12-28T13:19:25;9.80;99.90
8892;DHT22;4482;54.332;10.118;2023-12-28T13:21:53;9.80;99.90
8892;DHT22;4482;54.332;10.118;2023-12-28T13:24:20;9.80;99.90
8892;DHT22;4482;54.332;10.118;2023-12-28T13:26:46;9.80;99.90
8892;DHT22;4482;54.332;10.118;2023-12-28T13:29:13;9.70;99.90
8892;DHT22;4482;54.332;10.118;2023-12-28T13:31:40;9.80;99.90
8892;DHT22;4482;54.332;10.118;2023-12-28T13:34:08;9.80;99.90
8892;DHT22;4482;54.332;10.118;2023-12-28T13:36:35;9.80;99.90
8892;DHT22;4482;54.332;10.118;2023-12-28T13:39:02;9.80;99.90
8892;DHT22;4482;54.332;10.118;2023-12-28T13:41:29;9.80;99.90
8892;DHT22;4482;54.332;10.118;2023-12-28T13:43:56;9.70;99.90
8892;DHT22;4482;54.332;10.118;2023-12-28T13:46:27;9.80;99.90
8892;DHT22;4482;54.332;10.118;2023-12-28T13:48:54;9.80;99.90
8892;DHT22;4482;54.332;10.118;2023-12-28T13:51:22;9.70;99.90
8892;DHT22;4482;54.332;10.118;2023-12-28T13:53:48;9.70;99.90
8892;DHT22;4482;54.332;10.118;2023-12-28T13:56:16;9.60;99.90
8892;DHT22;4482;54.332;10.118;2023-12-28T13:58:42;9.60;99.90
8892;DHT22;4482;54.332;10.118;2023-12-28T14:01:09;9.60;99.90
8892;DHT22;4482;54.332;10.118;2023-12-28T14:03:36;9.60;99.90
8892;DHT22;4482;54.332;10.118;2023-12-28T14:06:03;9.70;99.90
8892;DHT22;4482;54.332;10.118;2023-12-28T14:08:31;9.60;99.90
8892;DHT22;4482;54.332;10.118;2023-12-28T14:10:58;9.60;99.90
8892;DHT22;4482;54.332;10.118;2023-12-28T14:13:24;9.60;99.90
8892;DHT22;4482;54.332;10.118;2023-12-28T14:15:51;9.50;99.90
8892;DHT22;4482;54.332;10.118;2023-12-28T14:18:18;9.60;99.90
8892;DHT22;4482;54.332;10.118;2023-12-28T14:20:45;9.50;99.90
8892;DHT22;4482;54.332;10.118;2023-12-28T14:23:12;9.50;99.90
8892;DHT22;4482;54.332;10.118;2023-12-28T14:25:40;9.60;99.90
8892;DHT22;4482;54.332;10.118;2023-12-28T14:28:07;9.50;99.90
8892;DHT22;4482;54.332;10.118;2023-12-28T14:30:35;9.50;99.90
8892;DHT22;4482;54.332;10.118;2023-12-28T14:33:02;9.50;99.90
8892;DHT22;4482;54.332;10.118;2023-12-28T14:35:29;9.60;99.90
8892;DHT22;4482;54.332;10.118;2023-12-28T14:37:56;9.60;99.90
8892;DHT22;4482;54.332;10.118;2023-12-28T14:40:23;9.60;99.90
8892;DHT22;4482;54.332;10.118;2023-12-28T14:42:51;9.60;99.90
8892;DHT22;4482;54.332;10.118;2023-12-28T14:45:17;9.60;99.90
8892;DHT22;4482;54.332;10.118;2023-12-28T14:47:44;9.60;99.90
8892;DHT22;4482;54.332;10.118;2023-12-28T14:50:11;9.60;99.90
8892;DHT22;4482;54.332;10.118;2023-12-28T14:52:38;9.60;99.90
8892;DHT22;4482;54.332;10.118;2023-12-28T14:55:07;9.60;99.90
8892;DHT22;4482;54.332;10.118;2023-12-28T14:57:34;9.60;99.90
8892;DHT22;4482;54.332;10.118;2023-12-28T15:00:02;9.60;99.90
8892;DHT22;4482;54.332;10.118;2023-12-28T15:02:30;9.70;99.90
8892;DHT22;4482;54.332;10.118;2023-12-28T15:04:57;9.60;99.90
8892;DHT22;4482;54.332;10.118;2023-12-28T15:07:25;9.70;99.90
8892;DHT22;4482;54.332;10.118;2023-12-28T15:09:51;9.60;99.90
8892;DHT22;4482;54.332;10.118;2023-12-28T15:12:21;9.60;99.90
8892;DHT22;4482;54.332;10.118;2023-12-28T15:14:48;9.60;99.90
8892;DHT22;4482;54.332;10.118;2023-12-28T15:17:17;9.60;99.90
8892;DHT22;4482;54.332;10.118;2023-12-28T15:19:44;9.70;99.90
8892;DHT22;4482;54.332;10.118;2023-12-28T15:22:11;9.60;99.90
8892;DHT22;4482;54.332;10.118;2023-12-28T15:24:38;9.60;99.90
8892;DHT22;4482;54.332;10.118;2023-12-28T15:27:05;9.60;99.90
8892;DHT22;4482;54.332;10.118;2023-12-28T15:29:32;9.60;99.90
8892;DHT22;4482;54.332;10.118;2023-12-28T15:31:59;9.60;99.90
8892;DHT22;4482;54.332;10.118;2023-12-28T15:34:27;9.60;99.90
8892;DHT22;4482;54.332;10.118;2023-12-28T15:36:54;9.60;99.90
8892;DHT22;4482;54.332;10.118;2023-12-28T15:39:20;9.60;99.90
8892;DHT22;4482;54.332;10.118;2023-12-28T15:41:49;9.50;99.90
8892;DHT22;4482;54.332;10.118;2023-12-28T15:44:16;9.50;99.90
8892;DHT22;4482;54.332;10.118;2023-12-28T15:46:42;9.50;99.90
8892;DHT22;4482;54.332;10.118;2023-12-28T15:49:09;9.50;99.90
8892;DHT22;4482;54.332;10.118;2023-12-28T15:51:37;9.50;99.90
8892;DHT22;4482;54.332;10.118;2023-12-28T15:54:04;9.50;99.90
8892;DHT22;4482;54.332;10.118;2023-12-28T15:56:30;9.50;99.90
8892;DHT22;4482;54.332;10.118;2023-12-28T15:58:57;9.50;99.90